createdAt,value
2019-03-21T00:00:51.706Z,1020.71
2019-03-21T00:01:51.682Z,1020.72
2019-03-21T00:02:51.668Z,1020.76
2019-03-21T00:03:51.642Z,1020.74
2019-03-21T00:04:51.635Z,1020.76
2019-03-21T00:05:51.600Z,1020.75
2019-03-21T00:06:51.601Z,1020.72
2019-03-21T00:07:51.572Z,1020.70
2019-03-21T00:08:51.564Z,1020.70
2019-03-21T00:09:51.559Z,1020.69
2019-03-21T00:10:51.523Z,1020.70
2019-03-21T00:11:51.513Z,1020.68
2019-03-21T00:12:51.500Z,1020.71
2019-03-21T00:13:51.663Z,1020.70
2019-03-21T00:14:51.461Z,1020.73
2019-03-21T00:15:51.443Z,1020.68
2019-03-21T00:16:51.439Z,1020.69
2019-03-21T00:17:51.423Z,1020.69
2019-03-21T00:18:51.412Z,1020.73
2019-03-21T00:19:51.392Z,1020.74
2019-03-21T00:20:51.361Z,1020.74
2019-03-21T00:21:51.346Z,1020.78
2019-03-21T00:22:51.349Z,1020.74
2019-03-21T00:23:51.309Z,1020.77
2019-03-21T00:24:51.346Z,1020.76
2019-03-21T00:25:51.284Z,1020.79
2019-03-21T00:26:51.273Z,1020.77
2019-03-21T00:27:51.243Z,1020.77
2019-03-21T00:28:51.244Z,1020.76
2019-03-21T00:29:51.232Z,1020.77
2019-03-21T00:30:51.222Z,1020.81
2019-03-21T00:31:51.177Z,1020.80
2019-03-21T00:32:51.183Z,1020.82
2019-03-21T00:33:51.212Z,1020.83
2019-03-21T00:34:51.175Z,1020.79
2019-03-21T00:35:51.130Z,1020.82
2019-03-21T00:36:51.159Z,1020.80
2019-03-21T00:37:51.080Z,1020.86
2019-03-21T00:38:51.079Z,1020.82
2019-03-21T00:39:51.068Z,1020.81
2019-03-21T00:40:51.062Z,1020.85
2019-03-21T00:41:51.025Z,1020.87
2019-03-21T00:42:51.001Z,1020.85
2019-03-21T00:43:51.001Z,1020.83
2019-03-21T00:44:51.009Z,1020.83
2019-03-21T00:45:51.004Z,1020.81
2019-03-21T00:46:50.952Z,1020.77
2019-03-21T00:47:50.916Z,1020.78
2019-03-21T00:48:50.922Z,1020.75
2019-03-21T00:49:50.911Z,1020.75
2019-03-21T00:50:50.924Z,1020.74
2019-03-21T00:51:50.867Z,1020.70
2019-03-21T00:52:50.860Z,1020.70
2019-03-21T00:53:50.824Z,1020.68
2019-03-21T00:54:50.806Z,1020.73
2019-03-21T00:55:50.884Z,1020.70
2019-03-21T00:56:50.795Z,1020.75
2019-03-21T00:57:50.764Z,1020.74
2019-03-21T00:58:50.757Z,1020.68
2019-03-21T00:59:50.730Z,1020.68
2019-03-21T01:00:50.736Z,1020.69
2019-03-21T01:01:50.733Z,1020.63
2019-03-21T01:02:50.681Z,1020.63
2019-03-21T01:03:50.669Z,1020.65
2019-03-21T01:04:50.646Z,1020.61
2019-03-21T01:05:50.633Z,1020.60
2019-03-21T01:06:50.663Z,1020.58
2019-03-21T01:07:50.606Z,1020.57
2019-03-21T01:08:50.591Z,1020.59
2019-03-21T01:09:50.570Z,1020.57
2019-03-21T01:10:50.565Z,1020.55
2019-03-21T01:11:50.590Z,1020.52
2019-03-21T01:12:50.520Z,1020.52
2019-03-21T01:13:50.532Z,1020.53
2019-03-21T01:14:50.516Z,1020.54
2019-03-21T01:15:50.480Z,1020.53
2019-03-21T01:16:50.516Z,1020.56
2019-03-21T01:17:50.442Z,1020.51
2019-03-21T01:18:50.432Z,1020.55
2019-03-21T01:19:50.652Z,1020.54
2019-03-21T01:20:50.393Z,1020.51
2019-03-21T01:21:50.396Z,1020.52
2019-03-21T01:22:50.377Z,1020.54
2019-03-21T01:23:50.353Z,1020.52
2019-03-21T01:24:50.360Z,1020.51
2019-03-21T01:25:50.313Z,1020.50
2019-03-21T01:26:50.332Z,1020.50
2019-03-21T01:27:50.291Z,1020.47
2019-03-21T01:28:50.285Z,1020.51
2019-03-21T01:29:50.265Z,1020.50
2019-03-21T01:30:50.236Z,1020.47
2019-03-21T01:31:50.247Z,1020.46
2019-03-21T01:32:50.219Z,1020.47
2019-03-21T01:33:50.214Z,1020.45
2019-03-21T01:34:50.205Z,1020.48
2019-03-21T01:35:50.171Z,1020.42
2019-03-21T01:36:50.159Z,1020.43
2019-03-21T01:37:50.174Z,1020.42
2019-03-21T01:38:50.159Z,1020.42
2019-03-21T01:39:50.111Z,1020.44
2019-03-21T01:40:50.100Z,1020.41
2019-03-21T01:41:50.065Z,1020.42
2019-03-21T01:42:50.058Z,1020.40
2019-03-21T01:43:50.077Z,1020.44
2019-03-21T01:44:50.012Z,1020.43
2019-03-21T01:45:50.014Z,1020.43
2019-03-21T01:46:50.000Z,1020.45
2019-03-21T01:47:49.969Z,1020.44
2019-03-21T01:48:50.103Z,1020.44
2019-03-21T01:49:50.259Z,1020.45
2019-03-21T01:50:49.937Z,1020.48
2019-03-21T01:51:49.914Z,1020.43
2019-03-21T01:52:49.891Z,1020.44
2019-03-21T01:53:49.872Z,1020.44
2019-03-21T01:54:49.864Z,1020.38
2019-03-21T01:55:49.882Z,1020.42
2019-03-21T01:56:49.820Z,1020.37
2019-03-21T01:57:49.830Z,1020.35
2019-03-21T01:58:49.811Z,1020.41
2019-03-21T01:59:49.793Z,1020.36
2019-03-21T02:00:49.796Z,1020.33
2019-03-21T02:01:49.783Z,1020.28
2019-03-21T02:02:49.730Z,1020.29
2019-03-21T02:03:49.701Z,1020.24
2019-03-21T02:04:49.688Z,1020.31
2019-03-21T02:05:49.699Z,1020.28
2019-03-21T02:06:49.697Z,1020.31
2019-03-21T02:07:49.653Z,1020.29
2019-03-21T02:08:49.631Z,1020.28
2019-03-21T02:09:49.632Z,1020.25
2019-03-21T02:10:49.609Z,1020.22
2019-03-21T02:11:49.723Z,1020.23
2019-03-21T02:12:49.582Z,1020.22
2019-03-21T02:13:49.556Z,1020.20
2019-03-21T02:14:52.341Z,1020.18
2019-03-21T02:15:50.775Z,1020.20
2019-03-21T02:16:49.517Z,1020.23
2019-03-21T02:17:49.522Z,1020.21
2019-03-21T02:18:49.491Z,1020.21
2019-03-21T02:19:49.464Z,1020.18
2019-03-21T02:20:49.452Z,1020.17
2019-03-21T02:21:49.414Z,1020.18
2019-03-21T02:22:49.446Z,1020.19
2019-03-21T02:23:49.395Z,1020.16
2019-03-21T02:24:49.375Z,1020.14
2019-03-21T02:25:49.363Z,1020.15
2019-03-21T02:26:49.354Z,1020.22
2019-03-21T02:27:49.369Z,1020.20
2019-03-21T02:28:49.312Z,1020.28
2019-03-21T02:29:49.293Z,1020.28
2019-03-21T02:30:49.296Z,1020.28
2019-03-21T02:31:49.285Z,1020.26
2019-03-21T02:32:49.303Z,1020.27
2019-03-21T02:33:49.243Z,1020.26
2019-03-21T02:34:49.211Z,1020.24
2019-03-21T02:35:49.219Z,1020.20
2019-03-21T02:36:49.176Z,1020.22
2019-03-21T02:37:49.191Z,1020.23
2019-03-21T02:38:49.159Z,1020.24
2019-03-21T02:39:59.376Z,1020.22
2019-03-21T02:40:49.124Z,1020.22
2019-03-21T02:41:49.094Z,1020.24
2019-03-21T02:42:49.101Z,1020.24
2019-03-21T02:43:49.086Z,1020.23
2019-03-21T02:44:49.125Z,1020.20
2019-03-21T02:45:49.318Z,1020.24
2019-03-21T02:46:49.019Z,1020.24
2019-03-21T02:47:49.005Z,1020.17
2019-03-21T02:48:49.013Z,1020.15
2019-03-21T02:49:48.999Z,1020.18
2019-03-21T02:50:48.979Z,1020.18
2019-03-21T02:51:48.929Z,1020.15
2019-03-21T02:52:48.957Z,1020.17
2019-03-21T02:53:48.913Z,1020.20
2019-03-21T02:54:48.912Z,1020.20
2019-03-21T02:55:48.885Z,1020.17
2019-03-21T02:56:48.851Z,1020.20
2019-03-21T02:57:48.832Z,1020.17
2019-03-21T02:58:48.842Z,1020.18
2019-03-21T02:59:49.174Z,1020.18
2019-03-21T03:00:48.788Z,1020.20
2019-03-21T03:01:48.793Z,1020.19
2019-03-21T03:02:48.754Z,1020.19
2019-03-21T03:03:48.748Z,1020.22
2019-03-21T03:04:48.720Z,1020.22
2019-03-21T03:05:48.737Z,1020.24
2019-03-21T03:06:48.692Z,1020.28
2019-03-21T03:07:48.695Z,1020.27
2019-03-21T03:08:48.670Z,1020.25
2019-03-21T03:09:48.705Z,1020.24
2019-03-21T03:10:48.659Z,1020.23
2019-03-21T03:11:48.623Z,1020.25
2019-03-21T03:12:48.611Z,1020.26
2019-03-21T03:13:48.587Z,1020.26
2019-03-21T03:14:48.579Z,1020.27
2019-03-21T03:15:48.577Z,1020.28
2019-03-21T03:16:48.554Z,1020.23
2019-03-21T03:17:48.538Z,1020.27
2019-03-21T03:18:48.509Z,1020.23
2019-03-21T03:19:48.480Z,1020.23
2019-03-21T03:20:48.513Z,1020.24
2019-03-21T03:21:48.472Z,1020.23
2019-03-21T03:22:48.452Z,1020.18
2019-03-21T03:23:48.436Z,1020.22
2019-03-21T03:24:48.414Z,1020.21
2019-03-21T03:25:50.966Z,1020.18
2019-03-21T03:26:48.406Z,1020.22
2019-03-21T03:27:48.362Z,1020.22
2019-03-21T03:28:48.344Z,1020.21
2019-03-21T03:29:48.429Z,1020.22
2019-03-21T03:30:48.322Z,1020.21
2019-03-21T03:31:48.345Z,1020.23
2019-03-21T03:32:48.283Z,1020.22
2019-03-21T03:33:48.265Z,1020.27
2019-03-21T03:34:48.281Z,1020.24
2019-03-21T03:35:48.248Z,1020.27
2019-03-21T03:36:48.267Z,1020.28
2019-03-21T03:37:48.268Z,1020.29
2019-03-21T03:38:48.196Z,1020.30
2019-03-21T03:39:48.178Z,1020.29
2019-03-21T03:40:48.152Z,1020.28
2019-03-21T03:41:48.197Z,1020.26
2019-03-21T03:42:48.132Z,1020.25
2019-03-21T03:43:48.123Z,1020.23
2019-03-21T03:44:48.106Z,1020.23
2019-03-21T03:45:48.076Z,1020.28
2019-03-21T03:46:48.059Z,1020.25
2019-03-21T03:47:48.069Z,1020.22
2019-03-21T03:48:48.057Z,1020.24
2019-03-21T03:49:48.006Z,1020.24
2019-03-21T03:50:47.999Z,1020.28
2019-03-21T03:51:47.974Z,1020.22
2019-03-21T03:52:48.050Z,1020.31
2019-03-21T03:53:47.976Z,1020.28
2019-03-21T03:54:47.926Z,1020.28
2019-03-21T03:55:47.954Z,1020.33
2019-03-21T03:56:47.897Z,1020.36
2019-03-21T03:57:47.889Z,1020.34
2019-03-21T03:58:47.900Z,1020.35
2019-03-21T03:59:48.030Z,1020.33
2019-03-21T04:00:47.836Z,1020.36
2019-03-21T04:01:47.811Z,1020.31
2019-03-21T04:02:47.805Z,1020.33
2019-03-21T04:03:47.828Z,1020.33
2019-03-21T04:04:47.763Z,1020.31
2019-03-21T04:05:47.760Z,1020.29
2019-03-21T04:06:47.729Z,1020.29
2019-03-21T04:07:47.705Z,1020.27
2019-03-21T04:08:47.736Z,1020.27
2019-03-21T04:09:47.704Z,1020.29
2019-03-21T04:10:47.671Z,1020.31
2019-03-21T04:11:47.656Z,1020.28
2019-03-21T04:12:47.634Z,1020.25
2019-03-21T04:13:47.617Z,1020.27
2019-03-21T04:14:47.609Z,1020.29
2019-03-21T04:15:53.210Z,1020.25
2019-03-21T04:16:47.562Z,1020.26
2019-03-21T04:17:47.551Z,1020.27
2019-03-21T04:18:47.546Z,1020.27
2019-03-21T04:19:47.578Z,1020.28
2019-03-21T04:20:47.510Z,1020.27
2019-03-21T04:21:47.493Z,1020.27
2019-03-21T04:22:47.456Z,1020.25
2019-03-21T04:23:47.473Z,1020.28
2019-03-21T04:24:47.476Z,1020.27
2019-03-21T04:25:47.419Z,1020.27
2019-03-21T04:26:47.432Z,1020.29
2019-03-21T04:27:47.372Z,1020.29
2019-03-21T04:28:47.371Z,1020.32
2019-03-21T04:29:47.627Z,1020.28
2019-03-21T04:30:47.326Z,1020.32
2019-03-21T04:31:47.351Z,1020.33
2019-03-21T04:32:47.290Z,1020.36
2019-03-21T04:33:47.288Z,1020.37
2019-03-21T04:34:47.268Z,1020.39
2019-03-21T04:35:47.265Z,1020.38
2019-03-21T04:36:47.278Z,1020.36
2019-03-21T04:37:47.234Z,1020.40
2019-03-21T04:38:47.220Z,1020.41
2019-03-21T04:39:47.192Z,1020.39
2019-03-21T04:40:47.175Z,1020.39
2019-03-21T04:41:47.281Z,1020.40
2019-03-21T04:42:47.145Z,1020.38
2019-03-21T04:43:47.121Z,1020.39
2019-03-21T04:44:47.106Z,1020.38
2019-03-21T04:45:47.093Z,1020.41
2019-03-21T04:46:47.062Z,1020.39
2019-03-21T04:47:47.052Z,1020.44
2019-03-21T04:48:47.073Z,1020.42
2019-03-21T04:49:47.036Z,1020.40
2019-03-21T04:50:47.008Z,1020.43
2019-03-21T04:51:47.015Z,1020.44
2019-03-21T04:52:47.127Z,1020.43
2019-03-21T04:53:46.960Z,1020.46
2019-03-21T04:54:46.934Z,1020.47
2019-03-21T04:55:46.915Z,1020.47
2019-03-21T04:56:46.903Z,1020.46
2019-03-21T04:57:46.901Z,1020.46
2019-03-21T04:58:46.947Z,1020.42
2019-03-21T04:59:46.938Z,1020.47
2019-03-21T05:00:46.839Z,1020.51
2019-03-21T05:01:46.825Z,1020.50
2019-03-21T05:02:46.821Z,1020.51
2019-03-21T05:03:46.810Z,1020.52
2019-03-21T05:04:46.796Z,1020.54
2019-03-21T05:05:46.778Z,1020.51
2019-03-21T05:06:46.759Z,1020.49
2019-03-21T05:07:46.740Z,1020.53
2019-03-21T05:08:46.758Z,1020.52
2019-03-21T05:09:46.691Z,1020.50
2019-03-21T05:10:46.682Z,1020.52
2019-03-21T05:11:46.667Z,1020.51
2019-03-21T05:12:46.652Z,1020.52
2019-03-21T05:13:46.673Z,1020.52
2019-03-21T05:14:46.630Z,1020.53
2019-03-21T05:15:46.624Z,1020.52
2019-03-21T05:16:46.605Z,1020.52
2019-03-21T05:17:46.579Z,1020.56
2019-03-21T05:18:46.578Z,1020.55
2019-03-21T05:19:46.586Z,1020.50
2019-03-21T05:20:46.533Z,1020.53
2019-03-21T05:21:46.520Z,1020.50
2019-03-21T05:22:46.488Z,1020.53
2019-03-21T05:23:46.476Z,1020.53
2019-03-21T05:24:46.505Z,1020.50
2019-03-21T05:25:46.444Z,1020.55
2019-03-21T05:26:46.429Z,1020.55
2019-03-21T05:27:46.401Z,1020.56
2019-03-21T05:28:46.401Z,1020.55
2019-03-21T05:29:46.401Z,1020.57
2019-03-21T05:30:46.364Z,1020.60
2019-03-21T05:31:46.359Z,1020.60
2019-03-21T05:32:46.332Z,1020.62
2019-03-21T05:33:46.306Z,1020.62
2019-03-21T05:34:46.428Z,1020.59
2019-03-21T05:35:46.269Z,1020.58
2019-03-21T05:36:46.254Z,1020.57
2019-03-21T05:37:46.241Z,1020.63
2019-03-21T05:38:46.250Z,1020.59
2019-03-21T05:39:46.228Z,1020.60
2019-03-21T05:40:46.231Z,1020.63
2019-03-21T05:41:46.190Z,1020.62
2019-03-21T05:42:46.149Z,1020.58
2019-03-21T05:43:46.161Z,1020.62
2019-03-21T05:44:46.140Z,1020.62
2019-03-21T05:45:46.155Z,1020.66
2019-03-21T05:46:46.102Z,1020.65
2019-03-21T05:47:46.096Z,1020.63
2019-03-21T05:48:46.077Z,1020.65
2019-03-21T05:49:46.049Z,1020.64
2019-03-21T05:50:46.113Z,1020.65
2019-03-21T05:51:46.014Z,1020.66
2019-03-21T05:52:46.003Z,1020.64
2019-03-21T05:53:45.999Z,1020.67
2019-03-21T05:54:45.967Z,1020.63
2019-03-21T05:55:45.970Z,1020.69
2019-03-21T05:56:45.972Z,1020.66
2019-03-21T05:57:45.936Z,1020.67
2019-03-21T05:58:45.913Z,1020.68
2019-03-21T05:59:45.897Z,1020.69
2019-03-21T06:00:45.865Z,1020.71
2019-03-21T06:01:45.889Z,1020.71
2019-03-21T06:02:45.842Z,1020.74
2019-03-21T06:03:45.825Z,1020.74
2019-03-21T06:04:45.819Z,1020.75
2019-03-21T06:05:45.804Z,1020.76
2019-03-21T06:06:45.824Z,1020.79
2019-03-21T06:07:45.774Z,1020.79
2019-03-21T06:08:45.754Z,1020.80
2019-03-21T06:09:45.731Z,1020.84
2019-03-21T06:10:45.719Z,1020.87
2019-03-21T06:11:45.726Z,1020.91
2019-03-21T06:12:45.689Z,1020.90
2019-03-21T06:13:45.712Z,1020.91
2019-03-21T06:14:45.636Z,1020.91
2019-03-21T06:15:45.619Z,1020.92
2019-03-21T06:16:45.649Z,1020.91
2019-03-21T06:17:45.591Z,1020.91
2019-03-21T06:18:45.590Z,1020.91
2019-03-21T06:19:45.564Z,1020.94
2019-03-21T06:20:45.565Z,1020.91
2019-03-21T06:21:45.706Z,1020.91
2019-03-21T06:22:45.538Z,1020.93
2019-03-21T06:23:45.489Z,1020.93
2019-03-21T06:24:45.492Z,1020.92
2019-03-21T06:25:45.473Z,1020.94
2019-03-21T06:26:45.440Z,1020.92
2019-03-21T06:27:45.487Z,1020.90
2019-03-21T06:28:45.430Z,1020.91
2019-03-21T06:29:45.431Z,1020.90
2019-03-21T06:30:45.408Z,1020.90
2019-03-21T06:31:45.361Z,1020.91
2019-03-21T06:32:45.362Z,1020.91
2019-03-21T06:33:45.348Z,1020.93
2019-03-21T06:34:45.336Z,1020.96
2019-03-21T06:35:45.311Z,1020.98
2019-03-21T06:36:45.295Z,1020.95
2019-03-21T06:37:45.306Z,1020.98
2019-03-21T06:38:45.282Z,1020.99
2019-03-21T06:39:45.231Z,1020.97
2019-03-21T06:40:45.228Z,1020.96
2019-03-21T06:41:45.213Z,1020.95
2019-03-21T06:42:45.297Z,1020.93
2019-03-21T06:43:45.185Z,1020.97
2019-03-21T06:44:45.178Z,1020.97
2019-03-21T06:45:48.147Z,1020.97
2019-03-21T06:46:49.686Z,1020.95
2019-03-21T06:47:45.159Z,1020.97
2019-03-21T06:48:45.100Z,1021.03
2019-03-21T06:49:46.562Z,1021.03
2019-03-21T06:50:45.077Z,1021.08
2019-03-21T06:51:45.040Z,1021.07
2019-03-21T06:52:45.105Z,1021.04
2019-03-21T06:53:45.006Z,1021.08
2019-03-21T06:54:44.995Z,1021.09
2019-03-21T06:55:44.985Z,1021.04
2019-03-21T06:56:44.969Z,1021.05
2019-03-21T06:57:44.952Z,1021.05
2019-03-21T06:58:44.952Z,1021.05
2019-03-21T06:59:44.938Z,1021.02
2019-03-21T07:00:44.906Z,1021.04
2019-03-21T07:01:44.899Z,1021.06
2019-03-21T07:02:44.889Z,1021.05
2019-03-21T07:03:44.855Z,1021.07
2019-03-21T07:04:44.859Z,1021.05
2019-03-21T07:05:44.841Z,1021.05
2019-03-21T07:06:44.820Z,1021.05
2019-03-21T07:07:44.804Z,1021.01
2019-03-21T07:08:44.787Z,1021.06
2019-03-21T07:09:44.779Z,1021.07
2019-03-21T07:10:44.755Z,1021.11
2019-03-21T07:11:44.730Z,1021.04
2019-03-21T07:12:44.726Z,1021.06
2019-03-21T07:13:44.702Z,1021.05
2019-03-21T07:14:44.693Z,1021.05
2019-03-21T07:15:44.683Z,1021.01
2019-03-21T07:16:44.677Z,1021.03
2019-03-21T07:17:44.642Z,1021.03
2019-03-21T07:18:44.634Z,1021.04
2019-03-21T07:19:44.632Z,1021.03
2019-03-21T07:20:44.600Z,1021.03
2019-03-21T07:21:44.579Z,1021.06
2019-03-21T07:22:44.564Z,1021.01
2019-03-21T07:23:44.533Z,1021.09
2019-03-21T07:24:44.655Z,1021.07
2019-03-21T07:25:44.491Z,1021.07
2019-03-21T07:26:44.475Z,1021.06
2019-03-21T07:27:44.490Z,1021.04
2019-03-21T07:28:44.467Z,1021.05
2019-03-21T07:29:44.441Z,1021.05
2019-03-21T07:30:44.446Z,1021.02
2019-03-21T07:31:44.417Z,1021.00
2019-03-21T07:32:44.386Z,1020.99
2019-03-21T07:33:44.370Z,1020.95
2019-03-21T07:34:44.373Z,1020.97
2019-03-21T07:35:44.337Z,1020.96
2019-03-21T07:36:44.342Z,1020.97
2019-03-21T07:37:44.343Z,1020.96
2019-03-21T07:38:44.310Z,1020.94
2019-03-21T07:39:44.270Z,1020.95
2019-03-21T07:40:44.280Z,1020.93
2019-03-21T07:41:44.266Z,1020.94
2019-03-21T07:42:44.276Z,1020.96
2019-03-21T07:43:44.264Z,1020.92
2019-03-21T07:44:44.211Z,1020.93
2019-03-21T07:45:44.186Z,1020.92
2019-03-21T07:46:44.161Z,1020.95
2019-03-21T07:47:44.170Z,1020.96
2019-03-21T07:48:44.171Z,1020.98
2019-03-21T07:49:44.144Z,1020.96
2019-03-21T07:50:44.108Z,1020.95
2019-03-21T07:51:45.279Z,1021.00
2019-03-21T07:52:44.107Z,1021.00
2019-03-21T07:53:44.141Z,1020.96
2019-03-21T07:54:44.060Z,1020.97
2019-03-21T07:55:44.035Z,1021.03
2019-03-21T07:56:44.026Z,1021.03
2019-03-21T07:57:44.006Z,1020.99
2019-03-21T07:58:43.987Z,1020.98
2019-03-21T07:59:44.012Z,1021.02
2019-03-21T08:00:43.937Z,1021.00
2019-03-21T08:01:43.932Z,1021.01
2019-03-21T08:02:43.955Z,1021.02
2019-03-21T08:03:43.887Z,1021.03
2019-03-21T08:04:43.896Z,1021.03
2019-03-21T08:05:43.903Z,1021.06
2019-03-21T08:06:43.867Z,1021.08
2019-03-21T08:07:43.846Z,1021.07
2019-03-21T08:08:43.807Z,1021.13
2019-03-21T08:09:43.948Z,1021.15
2019-03-21T08:10:43.802Z,1021.09
2019-03-21T08:11:43.773Z,1021.09
2019-03-21T08:12:43.798Z,1021.13
2019-03-21T08:13:43.749Z,1021.08
2019-03-21T08:14:43.723Z,1021.13
2019-03-21T08:15:43.856Z,1021.16
2019-03-21T08:16:43.703Z,1021.15
2019-03-21T08:17:43.679Z,1021.11
2019-03-21T08:18:43.673Z,1021.14
2019-03-21T08:19:43.645Z,1021.18
2019-03-21T08:20:43.643Z,1021.19
2019-03-21T08:21:43.656Z,1021.19
2019-03-21T08:22:43.606Z,1021.16
2019-03-21T08:23:43.584Z,1021.18
2019-03-21T08:24:43.559Z,1021.17
2019-03-21T08:25:43.589Z,1021.15
2019-03-21T08:26:43.548Z,1021.20
2019-03-21T08:27:43.523Z,1021.23
2019-03-21T08:28:43.506Z,1021.24
2019-03-21T08:29:43.479Z,1021.21
2019-03-21T08:30:43.507Z,1021.22
2019-03-21T08:31:43.472Z,1021.23
2019-03-21T08:32:43.444Z,1021.24
2019-03-21T08:33:43.430Z,1021.21
2019-03-21T08:34:43.423Z,1021.23
2019-03-21T08:35:43.427Z,1021.20
2019-03-21T08:36:43.402Z,1021.22
2019-03-21T08:37:43.377Z,1021.22
2019-03-21T08:38:43.360Z,1021.20
2019-03-21T08:39:43.346Z,1021.17
2019-03-21T08:40:43.354Z,1021.18
2019-03-21T08:41:43.320Z,1021.16
2019-03-21T08:42:43.278Z,1021.16
2019-03-21T08:43:43.270Z,1021.16
2019-03-21T08:44:43.247Z,1021.19
2019-03-21T08:45:43.259Z,1021.19
2019-03-21T08:46:43.243Z,1021.19
2019-03-21T08:47:43.226Z,1021.15
2019-03-21T08:48:43.206Z,1021.16
2019-03-21T08:49:43.180Z,1021.19
2019-03-21T08:50:43.225Z,1021.16
2019-03-21T08:51:43.163Z,1021.17
2019-03-21T08:52:43.142Z,1021.15
2019-03-21T08:53:43.135Z,1021.14
2019-03-21T08:54:43.114Z,1021.18
2019-03-21T08:55:43.079Z,1021.19
2019-03-21T08:56:43.096Z,1021.20
2019-03-21T08:57:43.061Z,1021.20
2019-03-21T08:58:43.089Z,1021.17
2019-03-21T08:59:43.047Z,1021.19
2019-03-21T09:00:43.022Z,1021.20
2019-03-21T09:01:43.017Z,1021.19
2019-03-21T09:02:43.029Z,1021.13
2019-03-21T09:03:42.991Z,1021.11
2019-03-21T09:04:42.969Z,1021.15
2019-03-21T09:05:42.965Z,1021.13
2019-03-21T09:06:42.965Z,1021.13
2019-03-21T09:07:42.921Z,1021.11
2019-03-21T09:08:42.926Z,1021.13
2019-03-21T09:09:42.904Z,1021.17
2019-03-21T09:10:42.900Z,1021.14
2019-03-21T09:11:42.913Z,1021.20
2019-03-21T09:12:42.921Z,1021.21
2019-03-21T09:13:42.826Z,1021.16
2019-03-21T09:14:42.828Z,1021.20
2019-03-21T09:15:42.824Z,1021.19
2019-03-21T09:16:42.809Z,1021.17
2019-03-21T09:17:42.782Z,1021.15
2019-03-21T09:18:42.818Z,1021.19
2019-03-21T09:19:42.764Z,1021.15
2019-03-21T09:20:42.749Z,1021.14
2019-03-21T09:21:42.726Z,1021.20
2019-03-21T09:22:42.715Z,1021.19
2019-03-21T09:23:42.737Z,1021.18
2019-03-21T09:24:42.702Z,1021.18
2019-03-21T09:25:42.677Z,1021.15
2019-03-21T09:26:42.686Z,1021.14
2019-03-21T09:27:42.665Z,1021.16
2019-03-21T09:28:42.729Z,1021.17
2019-03-21T09:29:53.027Z,1021.18
2019-03-21T09:30:42.661Z,1021.18
2019-03-21T09:31:42.616Z,1021.12
2019-03-21T09:32:42.601Z,1021.09
2019-03-21T09:33:42.591Z,1021.13
2019-03-21T09:34:42.568Z,1021.11
2019-03-21T09:35:42.564Z,1021.10
2019-03-21T09:36:42.550Z,1021.10
2019-03-21T09:37:42.557Z,1021.10
2019-03-21T09:38:42.522Z,1021.12
2019-03-21T09:39:42.581Z,1021.12
2019-03-21T09:40:42.507Z,1021.15
2019-03-21T09:41:42.473Z,1021.15
2019-03-21T09:42:42.490Z,1021.16
2019-03-21T09:43:42.451Z,1021.16
2019-03-21T09:44:42.467Z,1021.22
2019-03-21T09:45:42.476Z,1021.20
2019-03-21T09:46:50.761Z,1021.19
2019-03-21T09:47:42.409Z,1021.21
2019-03-21T09:48:42.401Z,1021.19
2019-03-21T09:49:42.398Z,1021.15
2019-03-21T09:50:42.407Z,1021.18
2019-03-21T09:51:42.364Z,1021.14
2019-03-21T09:52:42.353Z,1021.23
2019-03-21T09:53:42.353Z,1021.20
2019-03-21T09:54:42.498Z,1021.21
2019-03-21T09:55:42.335Z,1021.19
2019-03-21T09:56:42.328Z,1021.15
2019-03-21T09:57:42.310Z,1021.17
2019-03-21T09:58:42.302Z,1021.14
2019-03-21T09:59:42.297Z,1021.10
2019-03-21T10:00:42.292Z,1021.13
2019-03-21T10:01:42.280Z,1021.18
2019-03-21T10:02:42.259Z,1021.17
2019-03-21T10:03:42.258Z,1021.14
2019-03-21T10:04:42.240Z,1021.15
2019-03-21T10:05:42.277Z,1021.15
2019-03-21T10:06:42.223Z,1021.14
2019-03-21T10:07:42.210Z,1021.14
2019-03-21T10:08:42.176Z,1021.18
2019-03-21T10:09:42.172Z,1021.16
2019-03-21T10:10:42.194Z,1021.17
2019-03-21T10:11:42.165Z,1021.12
2019-03-21T10:12:42.144Z,1021.02
2019-03-21T10:13:42.145Z,1021.17
2019-03-21T10:14:42.110Z,1021.15
2019-03-21T10:15:42.251Z,1021.28
2019-03-21T10:16:42.115Z,1021.23
2019-03-21T10:17:42.095Z,1021.26
2019-03-21T10:18:42.094Z,1021.27
2019-03-21T10:19:42.067Z,1021.22
2019-03-21T10:20:42.046Z,1021.26
2019-03-21T10:21:43.656Z,1021.17
2019-03-21T10:22:42.027Z,1021.18
2019-03-21T10:23:42.012Z,1021.21
2019-03-21T10:24:41.987Z,1021.31
2019-03-21T10:25:42.489Z,1021.21
2019-03-21T10:26:42.014Z,1021.26
2019-03-21T10:27:41.969Z,1021.33
2019-03-21T10:28:41.956Z,1021.27
2019-03-21T10:29:41.937Z,1021.30
2019-03-21T10:30:41.939Z,1021.31
2019-03-21T10:31:41.928Z,1021.29
2019-03-21T10:32:41.918Z,1021.26
2019-03-21T10:33:41.886Z,1021.29
2019-03-21T10:34:41.880Z,1021.36
2019-03-21T10:35:41.880Z,1021.33
2019-03-21T10:36:41.933Z,1021.24
2019-03-21T10:37:41.855Z,1021.18
2019-03-21T10:38:41.837Z,1021.20
2019-03-21T10:39:41.823Z,1021.29
2019-03-21T10:40:41.802Z,1021.30
2019-03-21T10:41:41.795Z,1021.20
2019-03-21T10:42:41.828Z,1021.24
2019-03-21T10:43:41.779Z,1021.17
2019-03-21T10:44:41.780Z,1021.21
2019-03-21T10:45:41.765Z,1021.39
2019-03-21T10:46:41.732Z,1021.50
2019-03-21T10:47:41.774Z,1021.50
2019-03-21T10:48:41.724Z,1021.49
2019-03-21T10:49:41.713Z,1021.44
2019-03-21T10:50:41.710Z,1021.34
2019-03-21T10:51:41.702Z,1021.51
2019-03-21T10:52:41.716Z,1021.26
2019-03-21T10:53:41.655Z,1021.28
2019-03-21T10:54:41.674Z,1021.27
2019-03-21T10:55:41.642Z,1021.18
2019-03-21T10:56:41.645Z,1021.23
2019-03-21T10:57:41.690Z,1021.26
2019-03-21T10:58:41.610Z,1021.31
2019-03-21T10:59:41.610Z,1021.33
2019-03-21T11:00:41.597Z,1021.28
2019-03-21T11:01:41.578Z,1021.25
2019-03-21T11:02:41.562Z,1021.22
2019-03-21T11:03:41.587Z,1021.21
2019-03-21T11:04:41.567Z,1021.27
2019-03-21T11:05:41.551Z,1021.36
2019-03-21T11:06:41.513Z,1021.36
2019-03-21T11:07:41.565Z,1021.24
2019-03-21T11:08:41.550Z,1021.31
2019-03-21T11:09:41.488Z,1021.17
2019-03-21T11:10:41.502Z,1021.24
2019-03-21T11:11:41.469Z,1021.10
2019-03-21T11:12:41.488Z,1021.15
2019-03-21T11:13:41.468Z,1021.19
2019-03-21T11:14:41.475Z,1021.14
2019-03-21T11:15:41.448Z,1021.22
2019-03-21T11:16:41.414Z,1021.26
2019-03-21T11:17:41.627Z,1021.29
2019-03-21T11:18:41.477Z,1021.25
2019-03-21T11:19:41.386Z,1021.17
2019-03-21T11:20:41.392Z,1021.15
2019-03-21T11:21:42.013Z,1021.09
2019-03-21T11:22:41.442Z,1021.11
2019-03-21T11:23:41.358Z,1021.08
2019-03-21T11:24:41.330Z,1021.15
2019-03-21T11:25:41.393Z,1021.17
2019-03-21T11:26:41.321Z,1021.23
2019-03-21T11:27:41.305Z,1021.07
2019-03-21T11:28:41.338Z,1021.06
2019-03-21T11:29:41.314Z,1021.21
2019-03-21T11:30:41.272Z,1021.07
2019-03-21T11:31:41.333Z,1021.07
2019-03-21T11:32:41.271Z,1021.20
2019-03-21T11:33:41.275Z,1021.25
2019-03-21T11:34:41.247Z,1021.23
2019-03-21T11:35:41.214Z,1021.08
2019-03-21T11:36:41.233Z,1021.13
2019-03-21T11:37:41.196Z,1020.98
2019-03-21T11:38:41.232Z,1020.99
2019-03-21T11:39:41.195Z,1020.97
2019-03-21T11:40:41.187Z,1020.93
2019-03-21T11:41:41.185Z,1020.92
2019-03-21T11:42:41.213Z,1020.98
2019-03-21T11:43:41.191Z,1020.95
2019-03-21T11:44:41.147Z,1021.00
2019-03-21T11:45:41.187Z,1020.99
2019-03-21T11:46:42.042Z,1021.04
2019-03-21T11:47:42.080Z,1020.93
2019-03-21T11:48:41.103Z,1020.84
2019-03-21T11:49:42.044Z,1020.86
2019-03-21T11:50:41.125Z,1020.88
2019-03-21T11:51:41.068Z,1020.81
2019-03-21T11:52:41.390Z,1020.77
2019-03-21T11:53:41.049Z,1020.97
2019-03-21T11:54:41.078Z,1020.93
2019-03-21T11:55:41.027Z,1021.06
2019-03-21T11:56:41.001Z,1021.02
2019-03-21T11:57:41.011Z,1021.04
2019-03-21T11:58:41.000Z,1021.00
2019-03-21T11:59:51.126Z,1021.00
2019-03-21T12:00:44.448Z,1020.90
2019-03-21T12:01:40.960Z,1020.89
2019-03-21T12:02:40.954Z,1020.90
2019-03-21T12:03:40.946Z,1021.15
2019-03-21T12:04:40.953Z,1021.09
2019-03-21T12:05:40.923Z,1021.20